Time;durP1;ratioP1;P1;durP2;ratioP2;P2;SDS_P1;SDS_P2;PMS_P1;PMS_P2;Temp;Humidity;BMP_temperature;BMP_pressure;BME280_temperature;BME280_humidity;BME280_pressure;Samples;Min_cycle;Max_cycle;Signal;HPM_P1;HPM_P2
2021/06/14 00:00:48;;;;;;;14.45;6.60;;;;;;;;;;5106507;28;20030;-67
2021/06/14 00:03:13;;;;;;;15.15;6.18;;;;;;;;;;5101538;28;20392;-67
2021/06/14 00:05:40;;;;;;;13.18;6.68;;;;;;;;;;5112376;28;20023;-68
2021/06/14 00:08:25;;;;;;;20.98;7.38;;;;;;;;;;5104696;28;20132;-67
2021/06/14 00:10:52;;;;;;;15.68;7.68;;;;;;;;;;5101965;28;20040;-66
2021/06/14 00:13:18;;;;;;;18.40;9.50;;;;;;;;;;5107825;28;20047;-67
2021/06/14 00:15:44;;;;;;;17.92;9.02;;;;;;;;;;5105926;28;20039;-67
2021/06/14 00:18:09;;;;;;;17.73;8.20;;;;;;;;;;5105618;28;20024;-67
2021/06/14 00:20:35;;;;;;;13.48;7.78;;;;;;;;;;5108539;28;20028;-67
2021/06/14 00:23:00;;;;;;;12.70;7.75;;;;;;;;;;5104434;28;20036;-67
2021/06/14 00:25:27;;;;;;;17.00;8.77;;;;;;;;;;5099273;28;20536;-67
2021/06/14 00:27:53;;;;;;;14.65;9.00;;;;;;;;;;5111800;28;20095;-68
2021/06/14 00:30:25;;;;;;;16.13;9.07;;;;;;;;;;5101651;28;20050;-68
2021/06/14 00:32:50;;;;;;;13.18;7.90;;;;;;;;;;5104093;28;20020;-67
2021/06/14 00:35:16;;;;;;;20.10;9.07;;;;;;;;;;5109710;28;20044;-67
2021/06/14 00:37:41;;;;;;;15.20;9.32;;;;;;;;;;5098256;28;20108;-67
2021/06/14 00:40:07;;;;;;;12.77;8.38;;;;;;;;;;5109831;28;20020;-67
2021/06/14 00:42:32;;;;;;;19.15;10.25;;;;;;;;;;5103466;28;20028;-67
2021/06/14 00:44:57;;;;;;;17.25;9.38;;;;;;;;;;5102916;28;20030;-66
2021/06/14 00:47:23;;;;;;;18.90;9.63;;;;;;;;;;5110199;28;20426;-66
2021/06/14 00:49:48;;;;;;;18.85;10.48;;;;;;;;;;5097692;28;20071;-67
2021/06/14 00:52:13;;;;;;;18.92;10.38;;;;;;;;;;5108872;28;20047;-67
2021/06/14 00:54:38;;;;;;;21.77;11.63;;;;;;;;;;5103857;28;20084;-67
2021/06/14 00:57:04;;;;;;;21.55;10.60;;;;;;;;;;5101583;28;20040;-67
2021/06/14 00:59:29;;;;;;;24.33;10.27;;;;;;;;;;5111327;28;20035;-67
2021/06/14 01:01:54;;;;;;;23.27;11.93;;;;;;;;;;5097746;28;20011;-67
2021/06/14 01:04:20;;;;;;;22.00;11.25;;;;;;;;;;5114925;28;20445;-67
2021/06/14 01:06:48;;;;;;;27.52;11.57;;;;;;;;;;5113916;28;20031;-67
2021/06/14 01:09:14;;;;;;;24.25;11.40;;;;;;;;;;5113506;28;20106;-67
2021/06/14 01:11:39;;;;;;;28.20;11.10;;;;;;;;;;5113613;28;20445;-67
2021/06/14 01:14:10;;;;;;;27.17;12.25;;;;;;;;;;5114380;28;20054;-67
2021/06/14 01:16:43;;;;;;;26.30;11.27;;;;;;;;;;5114447;28;20102;-67
2021/06/14 01:19:15;;;;;;;30.42;11.95;;;;;;;;;;5114122;28;20077;-67
2021/06/14 01:21:59;;;;;;;25.77;12.10;;;;;;;;;;5095911;28;20032;-67
2021/06/14 01:24:27;;;;;;;27.67;11.50;;;;;;;;;;5113251;28;20399;-67
2021/06/14 01:27:03;;;;;;;29.63;11.98;;;;;;;;;;5114327;28;20032;-67
2021/06/14 01:29:29;;;;;;;29.08;12.25;;;;;;;;;;5114278;28;20110;-67
2021/06/14 01:31:55;;;;;;;34.60;14.00;;;;;;;;;;5114233;28;20035;-67
2021/06/14 01:34:24;;;;;;;24.98;12.23;;;;;;;;;;5113836;28;20019;-68
2021/06/14 01:36:50;;;;;;;32.85;12.60;;;;;;;;;;5113835;28;20093;-67
2021/06/14 01:39:15;;;;;;;26.35;12.07;;;;;;;;;;5113860;28;20039;-67
2021/06/14 01:41:41;;;;;;;29.30;13.23;;;;;;;;;;5113795;28;20383;-67
2021/06/14 01:44:06;;;;;;;27.67;12.60;;;;;;;;;;5113720;28;20111;-67
2021/06/14 01:46:34;;;;;;;30.77;13.85;;;;;;;;;;5113761;28;20392;-67
2021/06/14 01:49:01;;;;;;;26.48;12.38;;;;;;;;;;5113614;28;20028;-67
2021/06/14 01:51:28;;;;;;;32.60;13.43;;;;;;;;;;5113839;28;20024;-66
2021/06/14 01:54:02;;;;;;;22.60;12.65;;;;;;;;;;5113703;28;20089;-67
2021/06/14 01:56:32;;;;;;;35.20;13.65;;;;;;;;;;5113482;28;20479;-66
2021/06/14 01:58:58;;;;;;;35.63;13.35;;;;;;;;;;5113545;28;20422;-67
2021/06/14 02:01:24;;;;;;;27.15;13.15;;;;;;;;;;5113562;28;20019;-67
2021/06/14 02:03:49;;;;;;;30.27;13.35;;;;;;;;;;5113474;28;20023;-67
2021/06/14 02:06:15;;;;;;;29.73;13.18;;;;;;;;;;5113103;28;20065;-67
2021/06/14 02:08:40;;;;;;;27.75;12.50;;;;;;;;;;5112999;28;20027;-67
2021/06/14 02:11:05;;;;;;;43.33;15.18;;;;;;;;;;5113003;28;20453;-67
2021/06/14 02:13:31;;;;;;;35.40;15.05;;;;;;;;;;5113239;28;20036;-67
2021/06/14 02:15:56;;;;;;;37.45;14.48;;;;;;;;;;5113798;28;20417;-67
2021/06/14 02:18:24;;;;;;;28.83;14.13;;;;;;;;;;5113463;28;20046;-67
2021/06/14 02:20:49;;;;;;;23.27;13.35;;;;;;;;;;5113934;28;20372;-67
2021/06/14 02:23:14;;;;;;;37.63;15.30;;;;;;;;;;5117385;28;20023;-67
2021/06/14 02:25:40;;;;;;;30.80;14.15;;;;;;;;;;5099426;28;20640;-67
2021/06/14 02:28:05;;;;;;;27.55;12.88;;;;;;;;;;5116928;28;20035;-67
2021/06/14 02:30:30;;;;;;;37.03;14.52;;;;;;;;;;5117696;28;20019;-68
2021/06/14 02:32:56;;;;;;;28.08;13.63;;;;;;;;;;5117804;28;20023;-67
2021/06/14 02:35:23;;;;;;;37.72;14.15;;;;;;;;;;5117473;28;20035;-67
2021/06/14 02:37:52;;;;;;;33.72;15.23;;;;;;;;;;5117620;28;20156;-67
2021/06/14 02:40:20;;;;;;;31.30;15.40;;;;;;;;;;5099325;28;20027;-67
2021/06/14 02:42:45;;;;;;;39.05;16.88;;;;;;;;;;5116742;28;20035;-67
2021/06/14 02:45:11;;;;;;;34.40;16.55;;;;;;;;;;5117557;28;20034;-67
2021/06/14 02:47:37;;;;;;;36.70;16.30;;;;;;;;;;5116822;28;20478;-67
2021/06/14 02:50:06;;;;;;;49.35;17.92;;;;;;;;;;5117329;28;20111;-66
2021/06/14 02:52:33;;;;;;;31.08;14.77;;;;;;;;;;5117017;28;20031;-67
2021/06/14 02:55:02;;;;;;;36.28;15.80;;;;;;;;;;5116992;28;20031;-66
2021/06/14 02:57:29;;;;;;;35.92;14.30;;;;;;;;;;5116913;28;20032;-66
2021/06/14 02:59:54;;;;;;;35.40;14.77;;;;;;;;;;5116755;28;20016;-66
2021/06/14 03:02:20;;;;;;;29.30;14.73;;;;;;;;;;5116656;28;20376;-67
2021/06/14 03:04:46;;;;;;;34.22;15.02;;;;;;;;;;5116925;28;20032;-66
2021/06/14 03:07:11;;;;;;;29.13;14.45;;;;;;;;;;5116401;28;20076;-67
2021/06/14 03:09:37;;;;;;;30.73;14.93;;;;;;;;;;5116731;28;20024;-67
2021/06/14 03:12:02;;;;;;;37.03;15.68;;;;;;;;;;5116620;28;20053;-67
2021/06/14 03:14:29;;;;;;;37.42;16.13;;;;;;;;;;5116935;28;20030;-67
2021/06/14 03:16:55;;;;;;;31.25;14.38;;;;;;;;;;5116417;28;20064;-66
2021/06/14 03:19:22;;;;;;;31.63;14.43;;;;;;;;;;5116969;28;20031;-67
2021/06/14 03:21:47;;;;;;;45.22;16.65;;;;;;;;;;5116263;28;20383;-66
2021/06/14 03:24:13;;;;;;;29.52;14.63;;;;;;;;;;5117042;28;20023;-67
2021/06/14 03:26:40;;;;;;;28.98;13.27;;;;;;;;;;5116371;28;20054;-67
2021/06/14 03:29:06;;;;;;;34.83;15.13;;;;;;;;;;5116665;28;20055;-66
2021/06/14 03:31:31;;;;;;;43.05;16.50;;;;;;;;;;5116621;28;20027;-67
2021/06/14 03:33:57;;;;;;;36.63;14.85;;;;;;;;;;5115030;28;20099;-67
2021/06/14 03:36:23;;;;;;;38.55;15.48;;;;;;;;;;5115888;28;20045;-67
2021/06/14 03:38:50;;;;;;;33.00;15.48;;;;;;;;;;5116119;28;20344;-66
2021/06/14 03:41:15;;;;;;;30.08;14.93;;;;;;;;;;5096147;28;20036;-67
2021/06/14 03:43:41;;;;;;;47.13;17.13;;;;;;;;;;5109039;28;20103;-67
2021/06/14 03:46:06;;;;;;;43.17;16.02;;;;;;;;;;5116072;28;20459;-66
2021/06/14 03:48:32;;;;;;;32.90;14.93;;;;;;;;;;5115375;28;20032;-66
2021/06/14 03:50:57;;;;;;;36.70;15.88;;;;;;;;;;5115533;28;20448;-67
2021/06/14 03:53:30;;;;;;;32.15;14.38;;;;;;;;;;5115829;28;20464;-66
2021/06/14 03:55:55;;;;;;;40.47;15.57;;;;;;;;;;5115693;28;20104;-67
2021/06/14 03:58:21;;;;;;;34.28;15.23;;;;;;;;;;5116145;28;20020;-67
2021/06/14 04:00:46;;;;;;;38.67;16.33;;;;;;;;;;5115917;28;20455;-67
2021/06/14 04:03:11;;;;;;;36.20;16.23;;;;;;;;;;5116326;28;20024;-67
2021/06/14 04:05:37;;;;;;;34.75;16.30;;;;;;;;;;5115742;28;20372;-67
2021/06/14 04:08:02;;;;;;;39.47;15.57;;;;;;;;;;5115806;28;20046;-67
2021/06/14 04:10:27;;;;;;;36.92;15.55;;;;;;;;;;5115476;28;20047;-67
2021/06/14 04:12:52;;;;;;;31.55;14.95;;;;;;;;;;5114172;28;20410;-67
2021/06/14 04:15:18;;;;;;;35.42;16.05;;;;;;;;;;5114672;28;20027;-67
2021/06/14 04:17:43;;;;;;;30.75;14.13;;;;;;;;;;5115496;28;20035;-67
2021/06/14 04:20:09;;;;;;;39.85;15.63;;;;;;;;;;5115299;28;20069;-66
2021/06/14 04:22:34;;;;;;;37.35;15.52;;;;;;;;;;5115436;28;20032;-67
2021/06/14 04:25:00;;;;;;;36.58;14.55;;;;;;;;;;5115457;28;20118;-66
2021/06/14 04:27:25;;;;;;;41.70;15.60;;;;;;;;;;5115201;28;20019;-67
2021/06/14 04:29:50;;;;;;;30.30;15.02;;;;;;;;;;5115166;28;20407;-67
2021/06/14 04:32:16;;;;;;;28.75;14.60;;;;;;;;;;5115186;28;20027;-67
2021/06/14 04:34:41;;;;;;;36.05;15.30;;;;;;;;;;5115308;28;20026;-66
2021/06/14 04:37:07;;;;;;;25.25;12.55;;;;;;;;;;5114848;28;20027;-66
2021/06/14 04:39:32;;;;;;;36.40;14.93;;;;;;;;;;5114904;28;20032;-67
2021/06/14 04:41:58;;;;;;;52.38;18.30;;;;;;;;;;5114936;28;20020;-67
2021/06/14 04:44:23;;;;;;;43.33;16.35;;;;;;;;;;5114307;28;20112;-67
2021/06/14 04:46:49;;;;;;;37.08;14.10;;;;;;;;;;5115121;28;20050;-67
2021/06/14 04:49:14;;;;;;;28.20;11.05;;;;;;;;;;5114635;28;20114;-67
2021/06/14 04:51:39;;;;;;;30.63;11.50;;;;;;;;;;5115020;28;20019;-67
2021/06/14 04:54:05;;;;;;;37.38;11.30;;;;;;;;;;5114684;28;20388;-67
2021/06/14 04:56:30;;;;;;;33.47;10.27;;;;;;;;;;5115152;28;20019;-66
2021/06/14 04:58:55;;;;;;;48.30;10.00;;;;;;;;;;5114615;28;20115;-67
2021/06/14 05:01:21;;;;;;;13.70;6.72;;;;;;;;;;5114195;28;20107;-67
2021/06/14 05:03:46;;;;;;;9.52;4.95;;;;;;;;;;5114126;28;20054;-67
2021/06/14 05:06:11;;;;;;;8.10;5.18;;;;;;;;;;5114599;28;20042;-67
2021/06/14 05:08:36;;;;;;;7.38;4.60;;;;;;;;;;5090360;28;20092;-68
2021/06/14 05:11:02;;;;;;;8.82;4.20;;;;;;;;;;5104339;28;20528;-67
2021/06/14 05:13:27;;;;;;;5.05;3.47;;;;;;;;;;5108550;28;20024;-67
2021/06/14 05:15:52;;;;;;;5.22;3.13;;;;;;;;;;5107804;28;20552;-68
2021/06/14 05:18:18;;;;;;;5.18;3.28;;;;;;;;;;5114747;28;20043;-68
2021/06/14 05:20:43;;;;;;;7.55;4.03;;;;;;;;;;5114361;28;20152;-68
2021/06/14 05:23:08;;;;;;;6.78;4.00;;;;;;;;;;5114481;28;20456;-69
2021/06/14 05:25:34;;;;;;;8.57;3.80;;;;;;;;;;5114460;28;20546;-68
2021/06/14 05:27:59;;;;;;;5.95;4.10;;;;;;;;;;5114171;28;20023;-68
2021/06/14 05:30:25;;;;;;;6.47;4.22;;;;;;;;;;5114034;28;20450;-66
2021/06/14 05:32:50;;;;;;;5.25;4.00;;;;;;;;;;5113782;28;20084;-68
2021/06/14 05:35:16;;;;;;;7.15;3.08;;;;;;;;;;5113960;28;20016;-67
2021/06/14 05:37:41;;;;;;;6.38;4.18;;;;;;;;;;5113413;28;20031;-66
2021/06/14 05:40:08;;;;;;;6.68;3.40;;;;;;;;;;5113546;28;20032;-66
2021/06/14 05:42:34;;;;;;;4.85;2.63;;;;;;;;;;5113619;28;20540;-66
2021/06/14 05:44:59;;;;;;;8.55;3.05;;;;;;;;;;5113924;28;20024;-66
2021/06/14 05:47:24;;;;;;;5.10;2.97;;;;;;;;;;5113892;28;20027;-66
2021/06/14 05:49:50;;;;;;;5.07;2.65;;;;;;;;;;5114141;28;20102;-66
2021/06/14 05:52:15;;;;;;;5.65;3.20;;;;;;;;;;5113588;28;20464;-66
2021/06/14 05:54:40;;;;;;;7.03;3.92;;;;;;;;;;5113987;28;20379;-66
2021/06/14 05:57:06;;;;;;;6.95;3.45;;;;;;;;;;5113266;28;20459;-66
2021/06/14 05:59:31;;;;;;;5.82;2.80;;;;;;;;;;5113884;28;20061;-66
2021/06/14 06:01:57;;;;;;;7.65;3.38;;;;;;;;;;5113359;28;20008;-68
2021/06/14 06:04:22;;;;;;;5.90;3.67;;;;;;;;;;5113339;28;20015;-67
2021/06/14 06:06:48;;;;;;;8.02;3.47;;;;;;;;;;5113053;28;20036;-67
2021/06/14 06:09:13;;;;;;;6.75;3.72;;;;;;;;;;5113265;28;20050;-69
2021/06/14 06:11:38;;;;;;;8.73;3.90;;;;;;;;;;5106711;28;20040;-66
2021/06/14 06:14:04;;;;;;;10.07;4.13;;;;;;;;;;5109456;28;20035;-67
2021/06/14 06:16:29;;;;;;;7.90;4.20;;;;;;;;;;5105511;28;20110;-66
2021/06/14 06:18:54;;;;;;;7.38;3.67;;;;;;;;;;5105310;28;20085;-66
2021/06/14 06:21:20;;;;;;;7.00;3.78;;;;;;;;;;5107902;28;20032;-66
2021/06/14 06:23:46;;;;;;;7.95;3.65;;;;;;;;;;5106065;28;20032;-66
2021/06/14 06:26:11;;;;;;;8.53;3.60;;;;;;;;;;5102364;28;20039;-67
2021/06/14 06:28:36;;;;;;;12.27;4.45;;;;;;;;;;5104095;28;20268;-69
2021/06/14 06:31:02;;;;;;;9.15;4.60;;;;;;;;;;5107661;28;20460;-70
2021/06/14 06:33:27;;;;;;;9.30;5.18;;;;;;;;;;5111225;28;20099;-69
2021/06/14 06:35:52;;;;;;;9.63;5.30;;;;;;;;;;5108473;28;20452;-69
2021/06/14 06:38:18;;;;;;;13.70;5.53;;;;;;;;;;5103039;28;20122;-68
2021/06/14 06:40:43;;;;;;;10.30;4.90;;;;;;;;;;5102028;28;20020;-69
2021/06/14 06:43:08;;;;;;;15.32;6.05;;;;;;;;;;5103423;28;20024;-69
2021/06/14 06:45:34;;;;;;;15.27;5.93;;;;;;;;;;5099540;28;20186;-68
2021/06/14 06:48:00;;;;;;;10.02;5.70;;;;;;;;;;5112636;28;20019;-70
2021/06/14 06:50:26;;;;;;;14.60;4.70;;;;;;;;;;5112758;28;20562;-70
2021/06/14 06:52:51;;;;;;;8.90;4.93;;;;;;;;;;5112618;28;20016;-69
2021/06/14 06:55:17;;;;;;;14.63;4.43;;;;;;;;;;5113261;28;20085;-70
2021/06/14 06:57:43;;;;;;;10.13;4.55;;;;;;;;;;5112803;28;20495;-69
2021/06/14 07:00:15;;;;;;;7.15;4.28;;;;;;;;;;5113023;28;20027;-69
2021/06/14 07:02:41;;;;;;;10.82;4.22;;;;;;;;;;5113325;28;20043;-68
2021/06/14 07:05:06;;;;;;;8.77;4.50;;;;;;;;;;5112532;28;20468;-67
2021/06/14 07:07:32;;;;;;;12.18;4.47;;;;;;;;;;5107823;28;20023;-67
2021/06/14 07:09:58;;;;;;;10.52;4.63;;;;;;;;;;5116438;28;20076;-67
2021/06/14 07:12:24;;;;;;;10.45;4.30;;;;;;;;;;5115866;28;20050;-67
2021/06/14 07:14:49;;;;;;;7.63;3.92;;;;;;;;;;5115902;28;20023;-67
2021/06/14 07:17:15;;;;;;;7.78;4.10;;;;;;;;;;5114879;28;20031;-67
2021/06/14 07:19:40;;;;;;;9.15;4.32;;;;;;;;;;5115984;28;20056;-66
2021/06/14 07:22:05;;;;;;;10.23;4.27;;;;;;;;;;5115012;28;20028;-68
2021/06/14 07:24:30;;;;;;;6.85;3.75;;;;;;;;;;5116758;28;20240;-67
2021/06/14 07:26:56;;;;;;;8.82;3.92;;;;;;;;;;5116790;28;20468;-68
2021/06/14 07:29:21;;;;;;;8.30;3.85;;;;;;;;;;5116235;28;20028;-68
2021/06/14 07:31:46;;;;;;;7.70;3.90;;;;;;;;;;5116388;28;20024;-68
2021/06/14 07:34:12;;;;;;;8.07;4.03;;;;;;;;;;5110126;28;20355;-66
2021/06/14 07:36:37;;;;;;;12.05;4.65;;;;;;;;;;5109696;28;20039;-68
2021/06/14 07:39:03;;;;;;;7.63;4.00;;;;;;;;;;5115035;28;20051;-67
2021/06/14 07:41:29;;;;;;;11.70;4.65;;;;;;;;;;5115884;28;20292;-68
2021/06/14 07:43:54;;;;;;;12.60;4.67;;;;;;;;;;5115590;28;20051;-68
2021/06/14 07:46:19;;;;;;;13.40;4.73;;;;;;;;;;5115685;28;20264;-68
2021/06/14 07:48:44;;;;;;;7.03;3.97;;;;;;;;;;5116143;28;20275;-68
2021/06/14 07:51:10;;;;;;;10.87;4.90;;;;;;;;;;5115712;28;20069;-68
2021/06/14 07:53:36;;;;;;;8.60;4.18;;;;;;;;;;5116114;28;20746;-67
2021/06/14 07:56:02;;;;;;;10.43;3.83;;;;;;;;;;5115716;28;20400;-69
2021/06/14 07:58:27;;;;;;;9.68;4.00;;;;;;;;;;5115393;28;20020;-69
2021/06/14 08:00:53;;;;;;;7.07;4.43;;;;;;;;;;5116151;28;20057;-68
2021/06/14 08:03:22;;;;;;;10.98;4.75;;;;;;;;;;5115266;28;20283;-68
2021/06/14 08:05:47;;;;;;;4.82;2.50;;;;;;;;;;5115352;28;20437;-68
2021/06/14 08:08:14;;;;;;;3.15;1.85;;;;;;;;;;5115766;28;20023;-68
2021/06/14 08:10:39;;;;;;;4.75;1.65;;;;;;;;;;5115648;28;20079;-68
2021/06/14 08:13:05;;;;;;;5.82;2.90;;;;;;;;;;5115547;28;20100;-68
2021/06/14 08:15:31;;;;;;;3.47;1.85;;;;;;;;;;5115406;28;20035;-69
2021/06/14 08:25:50;;;;;;;5.68;3.25;;;;;;;;;;5115455;28;20023;-69
2021/06/14 08:28:15;;;;;;;4.22;2.40;;;;;;;;;;5115315;28;20454;-68
2021/06/14 08:30:40;;;;;;;3.88;2.08;;;;;;;;;;5114889;28;20420;-69
2021/06/14 08:33:06;;;;;;;4.43;2.17;;;;;;;;;;5114726;28;20031;-69
2021/06/14 08:35:31;;;;;;;2.25;1.50;;;;;;;;;;5115167;28;20759;-69
2021/06/14 08:37:57;;;;;;;9.20;4.57;;;;;;;;;;5114498;28;20047;-69
2021/06/14 08:40:24;;;;;;;1.52;1.23;;;;;;;;;;5115491;28;20015;-69
2021/06/14 08:42:50;;;;;;;4.80;1.52;;;;;;;;;;5114882;28;20126;-69
2021/06/14 08:45:15;;;;;;;2.50;1.30;;;;;;;;;;5114875;28;20399;-68
2021/06/14 08:47:43;;;;;;;1.92;1.33;;;;;;;;;;5115202;28;20019;-69
2021/06/14 08:50:10;;;;;;;2.35;1.27;;;;;;;;;;5114609;28;20079;-69
2021/06/14 08:52:35;;;;;;;2.78;1.45;;;;;;;;;;5115153;28;20421;-68
2021/06/14 08:55:02;;;;;;;2.60;1.30;;;;;;;;;;5114328;28;20028;-69
2021/06/14 08:57:27;;;;;;;4.20;1.40;;;;;;;;;;5115090;28;20054;-69
2021/06/14 08:59:52;;;;;;;4.47;1.30;;;;;;;;;;5114485;28;20371;-69
2021/06/14 09:02:18;;;;;;;2.60;1.57;;;;;;;;;;5114992;28;20020;-69
2021/06/14 09:04:45;;;;;;;3.20;1.58;;;;;;;;;;5114869;28;20272;-70
2021/06/14 09:07:10;;;;;;;4.97;1.40;;;;;;;;;;5114433;28;20019;-69
2021/06/14 09:09:36;;;;;;;4.53;1.60;;;;;;;;;;5114202;28;20479;-69
2021/06/14 09:12:02;;;;;;;2.63;1.20;;;;;;;;;;5114277;28;20315;-69
2021/06/14 09:14:30;;;;;;;4.88;1.63;;;;;;;;;;5114561;28;20256;-68
2021/06/14 09:17:01;;;;;;;3.95;1.83;;;;;;;;;;5114394;28;20035;-69
2021/06/14 09:19:31;;;;;;;4.45;1.58;;;;;;;;;;5113983;28;20027;-69
2021/06/14 09:22:08;;;;;;;2.83;1.55;;;;;;;;;;5114366;28;20061;-70
2021/06/14 09:24:34;;;;;;;3.97;1.58;;;;;;;;;;5114533;28;20081;-70
2021/06/14 09:26:59;;;;;;;3.13;1.33;;;;;;;;;;5113926;28;20020;-69
2021/06/14 09:29:26;;;;;;;3.40;1.60;;;;;;;;;;5114197;28;20295;-68
2021/06/14 09:31:53;;;;;;;3.97;1.52;;;;;;;;;;5109594;28;20260;-69
2021/06/14 09:34:19;;;;;;;3.40;1.60;;;;;;;;;;5094206;28;20435;-68
2021/06/14 09:36:56;;;;;;;3.22;1.65;;;;;;;;;;5100458;28;20067;-70
2021/06/14 09:39:21;;;;;;;2.20;1.52;;;;;;;;;;5114147;28;20038;-69
2021/06/14 09:41:48;;;;;;;5.55;1.70;;;;;;;;;;5114166;28;20114;-69
2021/06/14 09:44:24;;;;;;;4.00;1.80;;;;;;;;;;5113739;28;20024;-70
2021/06/14 09:46:58;;;;;;;3.35;1.50;;;;;;;;;;5113970;28;20468;-68
2021/06/14 09:49:23;;;;;;;2.60;1.40;;;;;;;;;;5103139;28;20032;-69
2021/06/14 09:51:50;;;;;;;3.37;1.40;;;;;;;;;;5093685;28;20434;-70
2021/06/14 09:54:23;;;;;;;3.95;1.50;;;;;;;;;;5112366;28;20105;-69
2021/06/14 09:56:51;;;;;;;2.72;1.55;;;;;;;;;;5113469;28;20031;-69
2021/06/14 09:59:23;;;;;;;3.20;1.58;;;;;;;;;;5112841;28;20487;-69
2021/06/14 10:01:48;;;;;;;5.15;1.60;;;;;;;;;;5113574;28;20067;-70
2021/06/14 10:04:13;;;;;;;2.70;1.40;;;;;;;;;;5112996;28;20031;-70
2021/06/14 10:06:42;;;;;;;3.95;1.42;;;;;;;;;;5113665;28;20511;-70
2021/06/14 10:09:10;;;;;;;2.10;1.40;;;;;;;;;;5113406;28;20034;-69
2021/06/14 10:11:37;;;;;;;3.15;1.60;;;;;;;;;;5112877;28;20047;-70
2021/06/14 10:14:10;;;;;;;4.07;1.60;;;;;;;;;;5108873;28;20016;-69
2021/06/14 10:16:37;;;;;;;2.47;1.35;;;;;;;;;;5110319;28;20419;-69
2021/06/14 10:19:03;;;;;;;3.25;1.20;;;;;;;;;;5113522;28;20123;-69
2021/06/14 10:21:30;;;;;;;2.80;1.40;;;;;;;;;;5113645;28;20107;-70
2021/06/14 10:23:57;;;;;;;4.88;1.60;;;;;;;;;;5103405;28;20024;-69
2021/06/14 10:26:23;;;;;;;3.83;1.90;;;;;;;;;;5111191;28;20039;-69
2021/06/14 10:28:48;;;;;;;5.35;1.45;;;;;;;;;;5104753;28;20427;-69
2021/06/14 10:31:14;;;;;;;2.40;1.60;;;;;;;;;;5105554;28;20048;-68
2021/06/14 10:33:40;;;;;;;3.88;1.48;;;;;;;;;;5095381;28;20449;-69
2021/06/14 10:36:06;;;;;;;4.78;1.58;;;;;;;;;;5111492;28;20028;-69
2021/06/14 10:38:33;;;;;;;2.95;1.67;;;;;;;;;;5100859;28;20032;-68
2021/06/14 10:40:59;;;;;;;2.50;1.45;;;;;;;;;;5102121;28;20049;-69
2021/06/14 10:43:27;;;;;;;2.65;1.38;;;;;;;;;;5116266;28;20031;-68
2021/06/14 10:45:53;;;;;;;2.85;1.60;;;;;;;;;;5104842;28;20036;-68
2021/06/14 10:48:23;;;;;;;4.57;1.35;;;;;;;;;;5096837;28;20023;-68
2021/06/14 10:50:48;;;;;;;3.97;1.70;;;;;;;;;;5097133;28;20028;-68
2021/06/14 10:53:22;;;;;;;4.22;2.05;;;;;;;;;;5097024;28;20020;-67
2021/06/14 10:55:49;;;;;;;3.42;1.50;;;;;;;;;;5097080;28;20048;-68
2021/06/14 10:58:15;;;;;;;3.70;1.90;;;;;;;;;;5096975;28;20111;-67
2021/06/14 11:00:40;;;;;;;3.22;1.75;;;;;;;;;;5113857;28;20019;-70
2021/06/14 11:03:08;;;;;;;2.40;1.50;;;;;;;;;;5117171;28;20072;-70
2021/06/14 11:05:44;;;;;;;4.13;1.73;;;;;;;;;;5116051;28;20499;-69
2021/06/14 11:08:16;;;;;;;3.72;1.50;;;;;;;;;;5116292;28;20459;-71
2021/06/14 11:10:43;;;;;;;6.43;1.70;;;;;;;;;;5116554;28;20500;-69
2021/06/14 11:13:12;;;;;;;9.50;1.98;;;;;;;;;;5116515;28;20019;-70
2021/06/14 11:15:39;;;;;;;3.13;1.75;;;;;;;;;;5116597;28;20020;-69
2021/06/14 11:18:07;;;;;;;4.85;2.17;;;;;;;;;;5116437;28;20490;-69
2021/06/14 11:20:33;;;;;;;3.97;2.10;;;;;;;;;;5116243;28;20023;-70
2021/06/14 11:22:59;;;;;;;8.98;3.38;;;;;;;;;;5115612;28;20368;-70
2021/06/14 11:25:30;;;;;;;12.98;3.20;;;;;;;;;;5111667;28;20044;-70
2021/06/14 11:27:56;;;;;;;10.43;3.22;;;;;;;;;;5108924;28;20023;-67
2021/06/14 11:30:26;;;;;;;7.00;2.75;;;;;;;;;;5112513;28;20019;-68
2021/06/14 11:32:51;;;;;;;7.68;3.05;;;;;;;;;;5100049;28;20110;-67
2021/06/14 11:35:17;;;;;;;5.97;2.60;;;;;;;;;;5109140;28;20099;-67
2021/06/14 11:37:47;;;;;;;8.90;2.88;;;;;;;;;;5107268;28;20023;-67
2021/06/14 11:40:14;;;;;;;6.25;2.72;;;;;;;;;;5101038;28;20388;-68
2021/06/14 11:42:46;;;;;;;7.18;2.70;;;;;;;;;;5103249;28;20376;-67
2021/06/14 11:45:23;;;;;;;9.48;2.67;;;;;;;;;;5109581;28;20044;-68
2021/06/14 11:47:49;;;;;;;9.65;2.97;;;;;;;;;;5112753;28;20184;-67
2021/06/14 11:50:20;;;;;;;8.00;3.03;;;;;;;;;;5112024;28;20535;-70
2021/06/14 11:52:55;;;;;;;4.72;2.50;;;;;;;;;;5116280;28;20076;-69
2021/06/14 11:55:20;;;;;;;10.38;2.92;;;;;;;;;;5115449;28;20027;-69
2021/06/14 11:57:46;;;;;;;11.90;2.72;;;;;;;;;;5112332;28;20080;-69
2021/06/14 12:00:23;;;;;;;7.82;3.45;;;;;;;;;;5115566;28;20118;-70
2021/06/14 12:02:49;;;;;;;7.95;2.60;;;;;;;;;;5098768;28;20040;-69
2021/06/14 12:05:14;;;;;;;5.65;3.30;;;;;;;;;;5111562;28;20100;-70
2021/06/14 12:07:41;;;;;;;6.20;2.95;;;;;;;;;;5107279;28;20523;-69
2021/06/14 12:10:06;;;;;;;3.80;2.13;;;;;;;;;;5101251;28;20024;-69
2021/06/14 12:12:32;;;;;;;6.13;2.05;;;;;;;;;;5112244;28;20031;-70
2021/06/14 12:14:57;;;;;;;2.80;1.73;;;;;;;;;;5095010;28;20026;-70
2021/06/14 12:17:24;;;;;;;4.43;1.98;;;;;;;;;;5106830;28;20107;-70
2021/06/14 12:19:50;;;;;;;3.33;1.92;;;;;;;;;;5115964;28;20426;-69
2021/06/14 12:22:18;;;;;;;3.95;1.77;;;;;;;;;;5112809;28;20016;-70
2021/06/14 12:24:43;;;;;;;6.53;1.92;;;;;;;;;;5107638;28;20107;-68
2021/06/14 12:27:09;;;;;;;4.10;2.00;;;;;;;;;;5105387;28;20115;-69
2021/06/14 12:29:34;;;;;;;5.90;1.85;;;;;;;;;;5101401;28;20020;-69
2021/06/14 12:32:02;;;;;;;6.38;2.10;;;;;;;;;;5111841;28;20035;-69
2021/06/14 12:34:27;;;;;;;2.63;1.88;;;;;;;;;;5094993;28;20074;-69
2021/06/14 12:36:56;;;;;;;4.53;2.30;;;;;;;;;;5115463;28;20441;-69
2021/06/14 12:39:22;;;;;;;2.55;1.70;;;;;;;;;;5108971;28;20137;-69
2021/06/14 12:41:48;;;;;;;2.35;1.50;;;;;;;;;;5095105;28;20085;-69
2021/06/14 12:44:13;;;;;;;5.85;2.00;;;;;;;;;;5103440;28;20020;-69
2021/06/14 12:46:38;;;;;;;3.42;1.63;;;;;;;;;;5115434;28;20028;-69
2021/06/14 12:49:04;;;;;;;5.85;2.30;;;;;;;;;;5115209;28;20036;-69
2021/06/14 12:51:33;;;;;;;2.58;1.60;;;;;;;;;;5105098;28;20085;-69
2021/06/14 12:53:59;;;;;;;3.00;1.80;;;;;;;;;;5112360;28;20487;-69
2021/06/14 12:56:24;;;;;;;3.55;1.60;;;;;;;;;;5115107;28;20099;-69
2021/06/14 12:58:50;;;;;;;6.05;2.17;;;;;;;;;;5097056;28;20016;-68
2021/06/14 13:01:20;;;;;;;4.85;2.00;;;;;;;;;;5105863;28;20038;-69
2021/06/14 13:03:45;;;;;;;6.30;2.10;;;;;;;;;;5094470;28;20036;-68
2021/06/14 13:06:10;;;;;;;3.42;1.60;;;;;;;;;;5110788;28;20069;-70
2021/06/14 13:08:39;;;;;;;6.13;1.98;;;;;;;;;;5114294;28;20024;-69
2021/06/14 13:11:04;;;;;;;5.82;2.15;;;;;;;;;;5114378;28;20056;-69
2021/06/14 13:13:39;;;;;;;3.33;1.98;;;;;;;;;;5114483;28;20066;-69
2021/06/14 13:16:25;;;;;;;4.30;2.35;;;;;;;;;;5113999;28;20039;-69
2021/06/14 13:18:54;;;;;;;3.03;1.90;;;;;;;;;;5112859;28;20114;-70
2021/06/14 13:21:23;;;;;;;3.00;1.75;;;;;;;;;;5113921;28;20032;-69
2021/06/14 13:24:08;;;;;;;3.13;1.70;;;;;;;;;;5113958;28;20035;-69
2021/06/14 13:26:41;;;;;;;3.13;2.10;;;;;;;;;;5114269;28;20051;-69
2021/06/14 13:29:14;;;;;;;2.75;1.73;;;;;;;;;;5113989;28;20425;-69
2021/06/14 13:31:41;;;;;;;5.00;1.63;;;;;;;;;;5113965;28;20506;-69
2021/06/14 13:34:10;;;;;;;2.25;1.50;;;;;;;;;;5113872;28;20036;-69
2021/06/14 13:36:36;;;;;;;2.08;1.33;;;;;;;;;;5113628;28;20044;-69
2021/06/14 13:39:03;;;;;;;4.47;1.65;;;;;;;;;;5112482;28;20100;-69
2021/06/14 13:41:29;;;;;;;3.22;1.40;;;;;;;;;;5114158;28;20040;-69
2021/06/14 13:44:08;;;;;;;3.22;1.63;;;;;;;;;;5110051;28;20030;-69
2021/06/14 13:46:40;;;;;;;2.40;1.38;;;;;;;;;;5114022;28;20391;-70
2021/06/14 13:49:05;;;;;;;2.88;1.50;;;;;;;;;;5113651;28;20613;-70
2021/06/14 13:51:30;;;;;;;3.42;1.60;;;;;;;;;;5114573;28;20047;-69
2021/06/14 13:54:01;;;;;;;2.03;1.20;;;;;;;;;;5113168;28;20026;-68
2021/06/14 13:56:47;;;;;;;2.40;1.10;;;;;;;;;;5113531;28;20043;-69
2021/06/14 13:59:18;;;;;;;1.75;1.00;;;;;;;;;;5092871;28;20048;-70
2021/06/14 14:01:44;;;;;;;3.85;1.63;;;;;;;;;;5109120;28;20456;-69
2021/06/14 14:04:10;;;;;;;3.88;1.35;;;;;;;;;;5105382;28;20160;-69
2021/06/14 14:06:35;;;;;;;3.08;1.27;;;;;;;;;;5101186;28;20105;-70
2021/06/14 14:09:02;;;;;;;2.63;0.90;;;;;;;;;;5099529;28;20410;-70
2021/06/14 14:11:28;;;;;;;1.15;0.95;;;;;;;;;;5106119;28;20127;-69
2021/06/14 14:13:56;;;;;;;1.70;0.95;;;;;;;;;;5102851;28;20521;-70
2021/06/14 14:16:21;;;;;;;1.50;0.95;;;;;;;;;;5098479;28;20044;-70
2021/06/14 14:18:47;;;;;;;2.50;1.00;;;;;;;;;;5101042;28;20008;-69
2021/06/14 14:21:12;;;;;;;2.13;1.10;;;;;;;;;;5108301;28;20086;-68
2021/06/14 14:23:37;;;;;;;1.88;0.80;;;;;;;;;;5104354;28;20028;-69
2021/06/14 14:26:03;;;;;;;1.50;0.80;;;;;;;;;;5105101;28;20020;-69
2021/06/14 14:28:28;;;;;;;3.13;0.77;;;;;;;;;;5098708;28;20044;-70
2021/06/14 14:30:53;;;;;;;1.85;0.70;;;;;;;;;;5096457;28;20384;-69
2021/06/14 14:33:19;;;;;;;1.52;0.95;;;;;;;;;;5112719;28;20043;-68
2021/06/14 14:35:55;;;;;;;1.25;0.82;;;;;;;;;;5112570;28;20035;-69
2021/06/14 14:38:20;;;;;;;2.05;0.73;;;;;;;;;;5094661;28;20023;-69